Time;durP1;ratioP1;P1;durP2;ratioP2;P2;SDS_P1;SDS_P2;PMS_P1;PMS_P2;Temp;Humidity;BMP_temperature;BMP_pressure;BME280_temperature;BME280_humidity;BME280_pressure;Samples;Min_cycle;Max_cycle;Signal;HPM_P1;HPM_P2
2022/08/28 00:00:55;;;;;;;;;;;13.20;99.90;;;;;;5052643;28;19935;-93
2022/08/28 00:03:21;;;;;;;;;;;13.20;99.90;;;;;;5058031;28;20411;-92
2022/08/28 00:05:47;;;;;;;;;;;13.10;99.90;;;;;;5061763;28;19936;-87
2022/08/28 00:08:13;;;;;;;;;;;13.10;99.90;;;;;;5030478;28;19909;-87
2022/08/28 00:10:38;;;;;;;;;;;13.10;99.90;;;;;;5047090;28;19976;-87
2022/08/28 00:13:06;;;;;;;;;;;13.10;99.90;;;;;;5063298;28;19920;-87
2022/08/28 00:15:32;;;;;;;;;;;13.00;99.90;;;;;;5030597;28;19928;-91
2022/08/28 00:17:58;;;;;;;;;;;13.00;99.90;;;;;;5039650;28;19976;-92
2022/08/28 00:20:24;;;;;;;;;;;13.00;99.90;;;;;;5018583;28;20011;-91
2022/08/28 00:22:54;;;;;;;;;;;12.90;99.90;;;;;;5035749;28;19921;-90
2022/08/28 00:25:22;;;;;;;;;;;13.00;99.90;;;;;;5071060;28;19920;-92
2022/08/28 00:27:52;;;;;;;;;;;12.90;99.90;;;;;;5052787;28;19921;-92
2022/08/28 00:30:24;;;;;;;;;;;12.80;99.90;;;;;;5030664;28;20259;-93
2022/08/28 00:32:50;;;;;;;;;;;12.80;99.90;;;;;;5045615;28;19921;-91
2022/08/28 00:35:16;;;;;;;;;;;12.80;99.90;;;;;;5031540;28;19928;-91
2022/08/28 00:37:42;;;;;;;;;;;12.80;99.90;;;;;;5029151;28;19928;-95
2022/08/28 00:40:08;;;;;;;;;;;12.70;99.90;;;;;;5031109;28;20063;-95
2022/08/28 00:42:34;;;;;;;;;;;12.70;99.90;;;;;;5047886;28;20348;-94
2022/08/28 00:44:59;;;;;;;;;;;12.70;99.90;;;;;;5028328;28;19920;-94
2022/08/28 00:47:25;;;;;;;;;;;12.60;99.90;;;;;;5045932;28;19927;-92
2022/08/28 00:49:51;;;;;;;;;;;12.60;99.90;;;;;;5045272;28;20007;-95
2022/08/28 00:52:17;;;;;;;;;;;12.70;99.90;;;;;;5031608;28;19920;-93
2022/08/28 00:54:43;;;;;;;;;;;12.60;99.90;;;;;;5035781;28;19904;-90
2022/08/28 00:57:09;;;;;;;;;;;12.60;99.90;;;;;;5053575;28;19967;-91
2022/08/28 00:59:35;;;;;;;;;;;12.60;99.90;;;;;;5030656;28;20391;-93
2022/08/28 01:02:00;;;;;;;;;;;12.60;99.90;;;;;;5046881;28;19964;-92
2022/08/28 01:04:27;;;;;;;;;;;12.60;99.90;;;;;;5047700;28;19921;-92
2022/08/28 01:06:54;;;;;;;;;;;12.60;99.90;;;;;;5033534;28;19928;-91
2022/08/28 01:09:20;;;;;;;;;;;12.60;99.90;;;;;;5049146;28;19917;-91
2022/08/28 01:11:46;;;;;;;;;;;12.60;99.90;;;;;;5047591;28;19909;-93
2022/08/28 01:14:12;;;;;;;;;;;12.50;99.90;;;;;;5028957;28;19952;-93
2022/08/28 01:16:38;;;;;;;;;;;12.50;99.90;;;;;;5027625;28;19966;-95
2022/08/28 01:19:04;;;;;;;;;;;12.50;99.90;;;;;;5025957;28;19931;-96
2022/08/28 01:21:32;;;;;;;;;;;12.40;99.90;;;;;;5042164;28;19928;-94
2022/08/28 01:24:03;;;;;;;;;;;12.40;99.90;;;;;;5024692;28;19974;-89
2022/08/28 01:26:29;;;;;;;;;;;12.40;99.90;;;;;;5044986;28;20019;-90
2022/08/28 01:28:57;;;;;;;;;;;12.30;99.90;;;;;;5027397;28;19967;-93
2022/08/28 01:31:23;;;;;;;;;;;12.30;99.90;;;;;;5028285;28;19921;-92
2022/08/28 01:33:49;;;;;;;;;;;12.30;99.90;;;;;;5047026;28;19921;-92
2022/08/28 01:36:16;;;;;;;;;;;12.30;99.90;;;;;;5027376;28;19978;-95
2022/08/28 01:38:42;;;;;;;;;;;12.30;99.90;;;;;;5027272;28;19927;-93
2022/08/28 01:41:08;;;;;;;;;;;12.30;99.90;;;;;;5027822;28;19963;-95
2022/08/28 01:43:33;;;;;;;;;;;12.30;99.90;;;;;;5036489;28;19928;-88
2022/08/28 01:46:03;;;;;;;;;;;12.20;99.90;;;;;;5043952;28;19911;-89
2022/08/28 01:48:29;;;;;;;;;;;12.30;99.90;;;;;;5061664;28;19904;-88
2022/08/28 01:50:55;;;;;;;;;;;12.20;99.90;;;;;;5030854;28;20335;-91
2022/08/28 01:53:22;;;;;;;;;;;12.20;99.90;;;;;;5030211;28;19924;-94
2022/08/28 01:55:47;;;;;;;;;;;12.20;99.90;;;;;;5036095;28;19967;-89
2022/08/28 01:58:13;;;;;;;;;;;12.20;99.90;;;;;;5055759;28;19920;-91
2022/08/28 02:00:39;;;;;;;;;;;12.20;99.90;;;;;;5051100;28;19981;-94
2022/08/28 02:03:05;;;;;;;;;;;12.10;99.90;;;;;;5051256;28;19921;-91
2022/08/28 02:05:31;;;;;;;;;;;12.10;99.90;;;;;;5051376;28;19921;-91
2022/08/28 02:07:57;;;;;;;;;;;12.10;99.90;;;;;;5032474;28;19921;-92
2022/08/28 02:10:24;;;;;;;;;;;12.10;99.90;;;;;;5030166;28;19932;-93
2022/08/28 02:12:50;;;;;;;;;;;12.00;99.90;;;;;;5013457;28;19921;-93
2022/08/28 02:15:15;;;;;;;;;;;12.00;99.90;;;;;;5025984;28;19960;-94
2022/08/28 02:17:41;;;;;;;;;;;12.00;99.90;;;;;;5030314;28;19921;-95
2022/08/28 02:20:07;;;;;;;;;;;12.00;99.90;;;;;;5027495;28;19920;-95
2022/08/28 02:22:32;;;;;;;;;;;12.00;99.90;;;;;;5029427;28;20391;-93
2022/08/28 02:24:58;;;;;;;;;;;11.90;99.90;;;;;;5028500;28;19920;-93
2022/08/28 02:27:23;;;;;;;;;;;11.90;99.90;;;;;;5027570;28;19980;-94
2022/08/28 02:29:49;;;;;;;;;;;11.90;99.90;;;;;;5050749;28;19921;-92
2022/08/28 02:32:14;;;;;;;;;;;11.90;99.90;;;;;;5038109;28;19927;-87
2022/08/28 02:34:42;;;;;;;;;;;11.90;99.90;;;;;;5043714;28;19943;-92
2022/08/28 02:37:10;;;;;;;;;;;11.90;99.90;;;;;;5053744;28;19921;-91
2022/08/28 02:39:36;;;;;;;;;;;11.90;99.90;;;;;;5054626;28;19928;-91
2022/08/28 02:42:01;;;;;;;;;;;11.90;99.90;;;;;;5055983;28;19920;-91
2022/08/28 02:44:27;;;;;;;;;;;11.90;99.90;;;;;;5037954;28;19943;-93
2022/08/28 02:46:52;;;;;;;;;;;11.90;99.90;;;;;;5048171;28;19921;-94
2022/08/28 02:49:18;;;;;;;;;;;11.90;99.90;;;;;;5047044;28;19920;-91
2022/08/28 02:51:44;;;;;;;;;;;12.00;99.90;;;;;;5033765;28;19925;-90
2022/08/28 02:54:09;;;;;;;;;;;12.20;99.90;;;;;;5053738;28;20004;-89
2022/08/28 02:56:35;;;;;;;;;;;12.00;99.90;;;;;;5056920;28;19927;-88
2022/08/28 02:59:00;;;;;;;;;;;12.00;99.90;;;;;;5040976;28;19912;-91
2022/08/28 03:01:26;;;;;;;;;;;12.20;99.90;;;;;;5049210;28;19928;-92
2022/08/28 03:03:51;;;;;;;;;;;11.90;99.90;;;;;;5032580;28;19928;-93
2022/08/28 03:06:17;;;;;;;;;;;11.90;99.90;;;;;;5038995;28;19921;-91
2022/08/28 03:08:43;;;;;;;;;;;11.90;99.90;;;;;;5058227;28;19928;-90
2022/08/28 03:11:08;;;;;;;;;;;12.00;99.90;;;;;;5058143;28;19940;-91
2022/08/28 03:13:34;;;;;;;;;;;11.80;99.90;;;;;;5057448;28;19904;-91
2022/08/28 03:15:59;;;;;;;;;;;11.80;99.90;;;;;;5037300;28;19947;-91
2022/08/28 03:18:25;;;;;;;;;;;11.80;99.90;;;;;;5027139;28;19928;-92
2022/08/28 03:20:51;;;;;;;;;;;11.70;99.90;;;;;;5029238;28;19944;-94
2022/08/28 03:23:26;;;;;;;;;;;11.70;99.90;;;;;;5046326;28;19920;-94
2022/08/28 03:25:55;;;;;;;;;;;11.70;99.90;;;;;;5048259;28;19976;-94
2022/08/28 03:28:21;;;;;;;;;;;11.70;99.90;;;;;;5047879;28;19921;-93
2022/08/28 03:30:48;;;;;;;;;;;11.70;99.90;;;;;;5029136;28;20003;-92
2022/08/28 03:33:14;;;;;;;;;;;11.70;99.90;;;;;;5043420;28;19931;-91
2022/08/28 03:35:39;;;;;;;;;;;11.70;99.90;;;;;;5029450;28;20000;-94
2022/08/28 03:38:05;;;;;;;;;;;11.70;99.90;;;;;;5030092;28;20282;-91
2022/08/28 03:40:31;;;;;;;;;;;11.70;99.90;;;;;;5046114;28;20091;-92
2022/08/28 03:42:56;;;;;;;;;;;11.70;99.90;;;;;;5049146;28;20016;-92
2022/08/28 03:45:22;;;;;;;;;;;11.60;99.90;;;;;;5029303;28;19921;-92
2022/08/28 03:47:48;;;;;;;;;;;11.70;99.90;;;;;;5012546;28;19921;-92
2022/08/28 03:50:13;;;;;;;;;;;11.70;99.90;;;;;;5028819;28;19925;-93
2022/08/28 03:52:39;;;;;;;;;;;11.70;99.90;;;;;;5010881;28;19960;-94
2022/08/28 03:55:07;;;;;;;;;;;11.80;99.90;;;;;;5029714;28;19921;-92
2022/08/28 03:57:33;;;;;;;;;;;11.80;99.90;;;;;;5030379;28;19943;-91
2022/08/28 03:59:58;;;;;;;;;;;11.80;99.90;;;;;;5041287;28;19905;-88
2022/08/28 04:02:24;;;;;;;;;;;11.80;99.90;;;;;;5063591;28;19912;-88
2022/08/28 04:04:49;;;;;;;;;;;11.70;99.90;;;;;;5046948;28;19948;-87
2022/08/28 04:07:16;;;;;;;;;;;11.90;99.90;;;;;;5032424;28;19987;-93
2022/08/28 04:09:41;;;;;;;;;;;11.70;99.90;;;;;;5026173;28;19927;-93
2022/08/28 04:12:07;;;;;;;;;;;11.60;99.90;;;;;;5026735;28;19921;-93
2022/08/28 04:14:33;;;;;;;;;;;11.60;99.90;;;;;;5026597;28;20022;-94
2022/08/28 04:16:58;;;;;;;;;;;11.60;99.90;;;;;;5042860;28;19955;-90
2022/08/28 04:19:24;;;;;;;;;;;11.50;99.90;;;;;;5026364;28;19925;-93
2022/08/28 04:21:50;;;;;;;;;;;11.50;99.90;;;;;;5026142;28;19920;-92
2022/08/28 04:24:15;;;;;;;;;;;11.50;99.90;;;;;;5043188;28;20011;-93
2022/08/28 04:26:41;;;;;;;;;;;11.50;99.90;;;;;;5044130;28;20011;-93
2022/08/28 04:29:07;;;;;;;;;;;11.40;99.90;;;;;;5045450;28;19928;-93
2022/08/28 04:31:32;;;;;;;;;;;11.40;99.90;;;;;;5028467;28;19970;-94
2022/08/28 04:34:02;;;;;;;;;;;11.40;99.90;;;;;;5044240;28;20387;-92
2022/08/28 04:36:27;;;;;;;;;;;11.40;99.90;;;;;;5028992;28;19927;-92
2022/08/28 04:38:53;;;;;;;;;;;11.40;99.90;;;;;;5027052;28;19920;-92
2022/08/28 04:41:19;;;;;;;;;;;11.40;99.90;;;;;;5042098;28;19921;-92
2022/08/28 04:43:45;;;;;;;;;;;11.40;99.90;;;;;;5041668;28;20273;-92
2022/08/28 04:46:11;;;;;;;;;;;11.40;99.90;;;;;;5023080;28;19943;-92
2022/08/28 04:48:37;;;;;;;;;;;11.40;99.90;;;;;;5006558;28;19960;-92
2022/08/28 04:51:07;;;;;;;;;;;11.40;99.90;;;;;;5023612;28;19931;-93
2022/08/28 04:53:33;;;;;;;;;;;11.40;99.90;;;;;;5024423;28;19943;-91
2022/08/28 04:56:01;;;;;;;;;;;11.50;99.90;;;;;;5023365;28;19999;-92
2022/08/28 04:58:29;;;;;;;;;;;11.50;99.90;;;;;;5040875;28;19943;-90
2022/08/28 05:00:57;;;;;;;;;;;11.70;99.90;;;;;;5039902;28;20357;-89
2022/08/28 05:03:23;;;;;;;;;;;11.80;99.90;;;;;;5006962;28;19925;-92
2022/08/28 05:05:53;;;;;;;;;;;12.00;99.90;;;;;;5006631;28;19925;-91
2022/08/28 05:08:20;;;;;;;;;;;12.00;99.90;;;;;;5008218;28;20265;-91
2022/08/28 05:10:45;;;;;;;;;;;12.10;99.90;;;;;;5009645;28;20286;-94
2022/08/28 05:13:11;;;;;;;;;;;12.20;99.90;;;;;;5025969;28;20015;-93
2022/08/28 05:15:40;;;;;;;;;;;12.10;99.90;;;;;;5016115;28;19928;-94
2022/08/28 05:18:05;;;;;;;;;;;12.20;99.90;;;;;;5039840;28;19921;-89
2022/08/28 05:20:37;;;;;;;;;;;12.20;99.90;;;;;;5042050;28;19960;-93
2022/08/28 05:23:03;;;;;;;;;;;12.50;99.90;;;;;;5028573;28;19921;-93
2022/08/28 05:25:29;;;;;;;;;;;13.00;99.90;;;;;;5027412;28;19944;-95
2022/08/28 05:27:54;;;;;;;;;;;13.30;99.90;;;;;;5009756;28;19975;-93
2022/08/28 05:30:20;;;;;;;;;;;13.70;99.90;;;;;;5007944;28;20323;-92
2022/08/28 05:32:46;;;;;;;;;;;13.90;99.90;;;;;;5041176;28;19927;-94
2022/08/28 05:35:12;;;;;;;;;;;14.50;99.90;;;;;;5025250;28;19921;-94
2022/08/28 05:37:38;;;;;;;;;;;14.70;99.90;;;;;;5006743;28;19921;-94
2022/08/28 05:40:04;;;;;;;;;;;15.10;99.90;;;;;;5023318;28;19924;-93
2022/08/28 05:42:29;;;;;;;;;;;16.50;99.90;;;;;;5039413;28;19920;-95
2022/08/28 05:44:57;;;;;;;;;;;16.00;99.90;;;;;;5006993;28;19920;-94
2022/08/28 05:47:23;;;;;;;;;;;16.20;99.90;;;;;;5023999;28;19972;-95
2022/08/28 05:49:48;;;;;;;;;;;16.50;99.90;;;;;;5006981;28;20459;-96
2022/08/28 05:52:14;;;;;;;;;;;15.90;99.90;;;;;;5021961;28;20307;-93
2022/08/28 05:54:40;;;;;;;;;;;16.10;99.90;;;;;;5039678;28;19921;-94
2022/08/28 05:57:08;;;;;;;;;;;16.40;99.90;;;;;;5039073;28;19921;-95
2022/08/28 05:59:34;;;;;;;;;;;16.60;99.90;;;;;;5045206;28;19916;-89
2022/08/28 06:01:59;;;;;;;;;;;15.60;99.90;;;;;;5031576;28;20273;-92
2022/08/28 06:04:25;;;;;;;;;;;17.80;99.90;;;;;;5024764;28;19967;-93
2022/08/28 06:06:51;;;;;;;;;;;18.50;99.90;;;;;;5007350;28;20001;-93
2022/08/28 06:09:21;;;;;;;;;;;18.30;99.90;;;;;;5042836;28;19921;-93
2022/08/28 06:11:47;;;;;;;;;;;18.80;99.90;;;;;;5007112;28;19920;-94
2022/08/28 06:14:14;;;;;;;;;;;19.00;99.90;;;;;;5024145;28;19932;-93
2022/08/28 06:16:43;;;;;;;;;;;18.80;99.90;;;;;;5023356;28;19927;-94
2022/08/28 06:19:09;;;;;;;;;;;19.40;99.90;;;;;;5022964;28;19920;-95
2022/08/28 06:21:35;;;;;;;;;;;19.50;99.90;;;;;;5022793;28;19984;-93
2022/08/28 06:24:01;;;;;;;;;;;19.80;99.90;;;;;;5021785;28;20368;-91
2022/08/28 06:26:27;;;;;;;;;;;19.90;99.90;;;;;;5037188;28;19928;-95
2022/08/28 06:28:52;;;;;;;;;;;20.30;99.90;;;;;;5037808;28;19928;-94
2022/08/28 06:31:18;;;;;;;;;;;20.40;99.90;;;;;;5021433;28;19920;-94
2022/08/28 06:33:45;;;;;;;;;;;20.40;99.90;;;;;;5020491;28;19924;-92
2022/08/28 06:36:10;;;;;;;;;;;20.30;99.90;;;;;;5020343;28;20348;-90
2022/08/28 06:38:36;;;;;;;;;;;20.40;99.90;;;;;;5019551;28;19920;-91
2022/08/28 06:41:01;;;;;;;;;;;20.90;99.90;;;;;;5022094;28;20303;-92
2022/08/28 06:44:23;;;;;;;;;;;21.10;99.90;;;;;;5025517;28;19988;-91
2022/08/28 06:46:51;;;;;;;;;;;20.90;99.90;;;;;;5036967;28;19970;-90
2022/08/28 06:49:17;;;;;;;;;;;21.80;99.90;;;;;;5004197;28;20015;-91
2022/08/28 06:51:43;;;;;;;;;;;21.60;99.90;;;;;;5019700;28;19956;-89
2022/08/28 06:54:08;;;;;;;;;;;21.80;99.90;;;;;;5035683;28;19920;-86
2022/08/28 06:56:34;;;;;;;;;;;21.90;99.90;;;;;;5020103;28;19974;-90
2022/08/28 06:59:00;;;;;;;;;;;22.20;99.90;;;;;;5006413;28;19968;-89
2022/08/28 07:01:27;;;;;;;;;;;22.20;99.90;;;;;;5009573;28;19928;-91
2022/08/28 07:03:58;;;;;;;;;;;22.20;99.90;;;;;;5023603;28;19920;-90
2022/08/28 07:06:24;;;;;;;;;;;22.20;99.90;;;;;;5007407;28;19931;-89
2022/08/28 07:08:49;;;;;;;;;;;23.40;99.90;;;;;;5007020;28;19920;-89
2022/08/28 07:11:23;;;;;;;;;;;23.50;99.90;;;;;;5040521;28;19924;-90
2022/08/28 07:13:49;;;;;;;;;;;23.40;99.90;;;;;;5023584;28;19920;-89
2022/08/28 07:16:15;;;;;;;;;;;23.60;99.90;;;;;;5006757;28;20284;-88
2022/08/28 07:18:41;;;;;;;;;;;23.70;99.90;;;;;;5007419;28;19921;-88
2022/08/28 07:21:06;;;;;;;;;;;24.20;99.90;;;;;;5039698;28;19928;-88
2022/08/28 07:23:32;;;;;;;;;;;23.90;99.90;;;;;;5039715;28;19920;-89
2022/08/28 07:25:59;;;;;;;;;;;24.20;99.90;;;;;;5022620;28;20372;-89
2022/08/28 07:28:24;;;;;;;;;;;24.50;99.90;;;;;;5006849;28;19978;-89
2022/08/28 07:30:57;;;;;;;;;;;25.20;99.20;;;;;;5009419;28;19925;-90
2022/08/28 07:33:23;;;;;;;;;;;25.70;98.90;;;;;;5023789;28;19947;-90
2022/08/28 07:35:49;;;;;;;;;;;25.10;98.20;;;;;;5039417;28;19921;-92
2022/08/28 07:38:15;;;;;;;;;;;25.10;98.50;;;;;;5019697;28;19921;-94
2022/08/28 07:40:40;;;;;;;;;;;25.50;97.60;;;;;;5003979;28;19929;-94
2022/08/28 07:46:00;;;;;;;;;;;24.90;98.20;;;;;;5022958;28;20383;-94
2022/08/28 07:48:25;;;;;;;;;;;24.70;98.40;;;;;;5044842;28;19943;-93
2022/08/28 07:50:51;;;;;;;;;;;25.20;97.70;;;;;;5042894;28;19908;-91
2022/08/28 07:53:16;;;;;;;;;;;25.80;97.50;;;;;;5039423;28;19924;-92
2022/08/28 07:55:42;;;;;;;;;;;26.30;95.80;;;;;;5021097;28;19975;-91
2022/08/28 07:58:08;;;;;;;;;;;25.00;96.80;;;;;;5037931;28;19921;-92
2022/08/28 08:00:33;;;;;;;;;;;25.20;96.90;;;;;;5007583;28;19929;-91
2022/08/28 08:02:59;;;;;;;;;;;24.80;96.70;;;;;;5016481;28;19921;-91
2022/08/28 08:05:24;;;;;;;;;;;24.70;97.10;;;;;;5009959;28;19921;-93
2022/08/28 08:07:51;;;;;;;;;;;25.50;97.10;;;;;;5037137;28;19921;-93
2022/08/28 08:10:17;;;;;;;;;;;25.10;96.80;;;;;;5036986;28;19928;-90
2022/08/28 08:12:43;;;;;;;;;;;25.40;95.90;;;;;;5019797;28;19921;-92
2022/08/28 08:15:09;;;;;;;;;;;25.50;96.30;;;;;;5035244;28;19921;-91
2022/08/28 08:17:35;;;;;;;;;;;25.90;96.20;;;;;;5019237;28;19932;-94
2022/08/28 08:20:00;;;;;;;;;;;25.80;95.90;;;;;;5019862;28;19944;-93
2022/08/28 08:22:26;;;;;;;;;;;25.20;95.60;;;;;;5036088;28;19921;-93
2022/08/28 08:24:54;;;;;;;;;;;26.00;95.90;;;;;;5035438;28;20261;-93
2022/08/28 08:27:19;;;;;;;;;;;26.10;95.00;;;;;;5036682;28;19924;-92
2022/08/28 08:29:45;;;;;;;;;;;25.30;94.60;;;;;;5035767;28;19927;-93
2022/08/28 08:32:11;;;;;;;;;;;25.70;95.20;;;;;;5035782;28;19987;-92
2022/08/28 08:34:40;;;;;;;;;;;25.80;94.70;;;;;;5019555;28;19929;-93
2022/08/28 08:37:06;;;;;;;;;;;26.10;94.60;;;;;;5003098;28;19927;-92
2022/08/28 08:39:32;;;;;;;;;;;26.90;94.40;;;;;;5035302;28;20358;-93
2022/08/28 08:41:58;;;;;;;;;;;26.50;93.50;;;;;;5036954;28;20261;-94
2022/08/28 08:44:34;;;;;;;;;;;27.10;93.50;;;;;;5019000;28;19932;-92
2022/08/28 08:47:09;;;;;;;;;;;25.20;94.80;;;;;;5035016;28;20479;-93
2022/08/28 08:49:36;;;;;;;;;;;25.20;95.90;;;;;;5036525;28;19921;-92
2022/08/28 08:52:05;;;;;;;;;;;24.70;95.50;;;;;;5002966;28;19921;-91
2022/08/28 08:54:31;;;;;;;;;;;25.30;95.60;;;;;;5019632;28;19921;-92
2022/08/28 08:56:56;;;;;;;;;;;25.60;96.00;;;;;;5038046;28;19921;-92
2022/08/28 08:59:24;;;;;;;;;;;26.20;95.30;;;;;;5037401;28;19921;-92
2022/08/28 09:02:00;;;;;;;;;;;25.90;95.60;;;;;;5022634;28;19984;-92
2022/08/28 09:04:38;;;;;;;;;;;26.30;94.60;;;;;;5043910;28;19968;-94
2022/08/28 09:07:21;;;;;;;;;;;26.90;94.10;;;;;;5021019;28;19924;-93
2022/08/28 09:09:48;;;;;;;;;;;26.00;94.00;;;;;;5020467;28;20353;-92
2022/08/28 09:12:18;;;;;;;;;;;24.40;95.20;;;;;;5040775;28;20014;-90
2022/08/28 09:14:49;;;;;;;;;;;23.80;95.90;;;;;;5023814;28;19925;-92
2022/08/28 09:17:16;;;;;;;;;;;22.60;97.30;;;;;;5028421;28;19921;-93
2022/08/28 09:19:42;;;;;;;;;;;22.20;98.00;;;;;;5035722;28;19921;-93
2022/08/28 09:22:07;;;;;;;;;;;21.80;98.60;;;;;;5036712;28;20008;-91
2022/08/28 09:24:35;;;;;;;;;;;21.40;99.70;;;;;;5038859;28;19961;-92
2022/08/28 09:27:21;;;;;;;;;;;21.90;99.60;;;;;;5022929;28;19925;-92
2022/08/28 09:29:57;;;;;;;;;;;23.00;99.10;;;;;;5043349;28;19987;-90
2022/08/28 09:32:30;;;;;;;;;;;24.00;97.20;;;;;;5022688;28;19966;-91
2022/08/28 09:35:15;;;;;;;;;;;25.00;96.60;;;;;;5024949;28;19921;-91
2022/08/28 09:37:41;;;;;;;;;;;25.20;95.80;;;;;;5044073;28;19921;-92
2022/08/28 09:40:14;;;;;;;;;;;24.00;96.70;;;;;;5026708;28;19974;-92
2022/08/28 09:45:24;;;;;;;;;;;23.60;96.70;;;;;;5023442;28;20368;-91
2022/08/28 09:47:51;;;;;;;;;;;24.80;95.80;;;;;;5021425;28;20042;-92
2022/08/28 09:50:19;;;;;;;;;;;25.50;95.20;;;;;;5021607;28;19928;-92
2022/08/28 09:52:45;;;;;;;;;;;25.50;95.00;;;;;;5021843;28;19924;-91
2022/08/28 09:55:11;;;;;;;;;;;25.20;95.10;;;;;;5021225;28;19927;-92
2022/08/28 09:57:37;;;;;;;;;;;23.90;95.50;;;;;;5022289;28;20271;-92
2022/08/28 10:00:03;;;;;;;;;;;23.00;96.40;;;;;;5044445;28;19905;-88
2022/08/28 10:02:49;;;;;;;;;;;23.40;96.40;;;;;;5046916;28;20259;-93
2022/08/28 10:05:17;;;;;;;;;;;24.30;96.00;;;;;;5027565;28;19942;-93
2022/08/28 10:07:48;;;;;;;;;;;25.30;95.30;;;;;;5062487;28;20011;-91
2022/08/28 10:10:15;;;;;;;;;;;24.70;95.00;;;;;;5045574;28;19924;-92
2022/08/28 10:12:47;;;;;;;;;;;25.30;94.60;;;;;;5045236;28;19921;-91
2022/08/28 10:15:25;;;;;;;;;;;24.30;94.70;;;;;;5045197;28;19925;-92
2022/08/28 10:17:53;;;;;;;;;;;25.50;94.80;;;;;;5013011;28;19959;-93
2022/08/28 10:20:23;;;;;;;;;;;25.70;94.30;;;;;;5047849;28;19921;-93
2022/08/28 10:22:51;;;;;;;;;;;26.70;93.40;;;;;;5030315;28;20264;-91
2022/08/28 10:25:21;;;;;;;;;;;24.80;94.20;;;;;;5031945;28;19920;-91
2022/08/28 10:27:47;;;;;;;;;;;24.60;95.40;;;;;;5033021;28;19967;-93
2022/08/28 10:30:14;;;;;;;;;;;25.00;95.00;;;;;;5065262;28;19921;-92
2022/08/28 10:32:52;;;;;;;;;;;25.70;94.70;;;;;;5028327;28;19920;-94
2022/08/28 10:35:21;;;;;;;;;;;25.80;94.00;;;;;;5044285;28;19950;-94
2022/08/28 10:37:56;;;;;;;;;;;26.00;93.70;;;;;;5025665;28;19928;-92
2022/08/28 10:40:23;;;;;;;;;;;25.40;94.20;;;;;;5041958;28;19939;-93
2022/08/28 10:42:54;;;;;;;;;;;25.30;94.50;;;;;;5024595;28;19968;-93
2022/08/28 10:45:23;;;;;;;;;;;23.80;95.10;;;;;;5041758;28;19982;-91
2022/08/28 10:47:59;;;;;;;;;;;23.70;95.60;;;;;;5026787;28;19921;-92
2022/08/28 10:50:26;;;;;;;;;;;24.30;95.90;;;;;;5040354;28;19942;-92
2022/08/28 10:52:56;;;;;;;;;;;25.20;95.60;;;;;;5037905;28;19921;-93
2022/08/28 10:55:23;;;;;;;;;;;24.80;94.40;;;;;;5041073;28;19920;-92
2022/08/28 10:58:05;;;;;;;;;;;24.40;94.10;;;;;;5025424;28;19921;-95
2022/08/28 11:00:31;;;;;;;;;;;24.50;94.50;;;;;;5024615;28;19921;-93
2022/08/28 11:02:57;;;;;;;;;;;24.20;95.10;;;;;;5043671;28;19921;-93
2022/08/28 11:05:25;;;;;;;;;;;24.30;95.50;;;;;;5028306;28;20388;-91
2022/08/28 11:07:52;;;;;;;;;;;24.70;95.40;;;;;;5042970;28;19928;-93
2022/08/28 11:10:37;;;;;;;;;;;23.60;94.90;;;;;;5026185;28;19921;-94
2022/08/28 11:13:03;;;;;;;;;;;23.60;95.10;;;;;;5040112;28;19921;-95
2022/08/28 11:15:30;;;;;;;;;;;22.80;95.60;;;;;;5023721;28;20310;-94
2022/08/28 11:18:07;;;;;;;;;;;22.70;95.50;;;;;;5024942;28;19926;-93
2022/08/28 11:20:33;;;;;;;;;;;22.80;96.00;;;;;;5024778;28;19928;-93
2022/08/28 11:23:19;;;;;;;;;;;22.70;95.70;;;;;;5023729;28;19924;-93
2022/08/28 11:25:58;;;;;;;;;;;22.60;96.00;;;;;;5009061;28;19920;-93
2022/08/28 11:28:24;;;;;;;;;;;22.90;95.30;;;;;;5025017;28;19932;-93
2022/08/28 11:31:02;;;;;;;;;;;23.00;95.40;;;;;;5052245;28;19904;-91
2022/08/28 11:33:38;;;;;;;;;;;23.10;95.50;;;;;;5063527;28;19940;-92
2022/08/28 11:36:07;;;;;;;;;;;22.70;95.90;;;;;;5045827;28;19917;-93
2022/08/28 11:38:57;;;;;;;;;;;22.70;95.40;;;;;;5023711;28;19921;-92
2022/08/28 11:41:25;;;;;;;;;;;22.80;95.20;;;;;;5003369;28;19920;-94
2022/08/28 11:44:09;;;;;;;;;;;22.60;95.80;;;;;;5023358;28;20371;-94
2022/08/28 11:46:39;;;;;;;;;;;22.20;96.40;;;;;;5057684;28;19927;-93
2022/08/28 11:49:27;;;;;;;;;;;21.80;96.70;;;;;;5024450;28;19925;-95
2022/08/28 11:52:11;;;;;;;;;;;22.00;96.50;;;;;;5041479;28;20348;-93
2022/08/28 11:54:43;;;;;;;;;;;22.30;96.20;;;;;;5040874;28;20003;-93
2022/08/28 11:57:11;;;;;;;;;;;22.40;96.40;;;;;;5042099;28;19920;-96
2022/08/28 11:59:40;;;;;;;;;;;22.10;96.30;;;;;;5041227;28;19920;-94
2022/08/28 12:02:24;;;;;;;;;;;22.40;96.50;;;;;;5025974;28;19921;-92
2022/08/28 12:04:50;;;;;;;;;;;22.60;96.60;;;;;;5024014;28;20063;-94
2022/08/28 12:07:17;;;;;;;;;;;22.40;96.60;;;;;;5018851;28;19960;-93
2022/08/28 12:09:43;;;;;;;;;;;22.00;96.60;;;;;;5035871;28;19936;-92
2022/08/28 12:12:09;;;;;;;;;;;21.60;96.70;;;;;;5042628;28;19988;-91
2022/08/28 12:14:35;;;;;;;;;;;21.80;96.50;;;;;;5025892;28;20364;-93
2022/08/28 12:17:13;;;;;;;;;;;22.00;96.50;;;;;;5043177;28;19920;-93
2022/08/28 12:19:39;;;;;;;;;;;22.30;97.10;;;;;;5044025;28;19921;-94
2022/08/28 12:22:04;;;;;;;;;;;22.40;95.90;;;;;;5040689;28;19971;-92
2022/08/28 12:24:30;;;;;;;;;;;21.80;96.10;;;;;;5022542;28;19928;-93
2022/08/28 12:26:56;;;;;;;;;;;22.30;96.00;;;;;;5039875;28;19925;-94
2022/08/28 12:29:21;;;;;;;;;;;22.50;95.40;;;;;;5024135;28;20361;-90
2022/08/28 12:34:42;;;;;;;;;;;22.60;95.00;;;;;;5025741;28;19920;-92
2022/08/28 12:37:26;;;;;;;;;;;22.50;95.50;;;;;;5040039;28;20273;-93
2022/08/28 12:39:52;;;;;;;;;;;22.80;95.20;;;;;;5041239;28;19920;-92
2022/08/28 12:42:18;;;;;;;;;;;22.60;95.20;;;;;;5040157;28;20277;-91
2022/08/28 12:44:44;;;;;;;;;;;22.80;95.40;;;;;;5022776;28;19928;-92
2022/08/28 12:47:17;;;;;;;;;;;22.90;95.00;;;;;;5023910;28;20319;-93
2022/08/28 12:49:43;;;;;;;;;;;23.20;94.70;;;;;;5008201;28;19921;-93
2022/08/28 12:52:19;;;;;;;;;;;23.00;95.20;;;;;;5007195;28;19927;-94
2022/08/28 12:54:44;;;;;;;;;;;23.00;94.70;;;;;;5022751;28;19925;-94
2022/08/28 12:57:11;;;;;;;;;;;22.90;95.10;;;;;;5040075;28;19927;-93
2022/08/28 12:59:38;;;;;;;;;;;22.90;95.70;;;;;;5007330;28;19920;-94
2022/08/28 13:02:09;;;;;;;;;;;22.90;95.70;;;;;;5039149;28;19973;-92
2022/08/28 13:04:35;;;;;;;;;;;22.60;95.80;;;;;;5022866;28;19956;-94
2022/08/28 13:07:23;;;;;;;;;;;22.50;96.00;;;;;;5024335;28;19920;-93
2022/08/28 13:09:53;;;;;;;;;;;22.80;95.90;;;;;;5053605;28;19927;-93
2022/08/28 13:12:23;;;;;;;;;;;22.50;96.20;;;;;;5024632;28;19928;-92
2022/08/28 13:14:51;;;;;;;;;;;22.00;96.80;;;;;;5039269;28;19928;-94
2022/08/28 13:17:36;;;;;;;;;;;21.60;97.10;;;;;;5006946;28;19928;-93
2022/08/28 13:20:07;;;;;;;;;;;21.90;97.10;;;;;;5039312;28;19920;-92
2022/08/28 13:22:34;;;;;;;;;;;21.90;97.10;;;;;;5023960;28;20356;-94
2022/08/28 13:25:00;;;;;;;;;;;22.00;97.00;;;;;;5039045;28;19943;-93
2022/08/28 13:27:26;;;;;;;;;;;22.20;97.20;;;;;;5006054;28;19925;-93
2022/08/28 13:29:56;;;;;;;;;;;22.20;96.60;;;;;;5006359;28;20242;-91
2022/08/28 13:32:21;;;;;;;;;;;22.30;96.80;;;;;;5006113;28;19921;-93
2022/08/28 13:35:06;;;;;;;;;;;22.00;97.20;;;;;;5041404;28;19921;-93
2022/08/28 13:37:58;;;;;;;;;;;21.70;97.20;;;;;;5022835;28;19927;-95
2022/08/28 13:40:27;;;;;;;;;;;22.10;97.40;;;;;;5018433;28;19925;-88
2022/08/28 13:42:55;;;;;;;;;;;21.90;97.30;;;;;;5042481;28;19920;-94
2022/08/28 13:45:21;;;;;;;;;;;22.00;97.40;;;;;;5038929;28;19921;-93
2022/08/28 13:47:46;;;;;;;;;;;21.80;97.80;;;;;;5053663;28;20025;-93
2022/08/28 13:50:12;;;;;;;;;;;21.50;98.10;;;;;;5039875;28;20349;-95
2022/08/28 13:52:38;;;;;;;;;;;21.60;98.20;;;;;;5039052;28;19920;-92
2022/08/28 13:55:04;;;;;;;;;;;21.80;98.80;;;;;;5056355;28;20015;-95
2022/08/28 13:57:30;;;;;;;;;;;21.60;98.70;;;;;;5038484;28;19968;-93
2022/08/28 13:59:56;;;;;;;;;;;21.90;98.60;;;;;;5038368;28;19943;-94
2022/08/28 14:05:06;;;;;;;;;;;21.90;98.60;;;;;;5023948;28;19927;-94
2022/08/28 14:07:32;;;;;;;;;;;21.90;98.90;;;;;;5021346;28;19924;-95
2022/08/28 14:09:57;;;;;;;;;;;22.10;98.70;;;;;;5015369;28;19912;-92
2022/08/28 14:12:23;;;;;;;;;;;22.60;98.50;;;;;;5029480;28;19947;-93
2022/08/28 14:14:48;;;;;;;;;;;22.50;98.60;;;;;;5022195;28;20361;-93
2022/08/28 14:17:14;;;;;;;;;;;22.40;98.70;;;;;;5022527;28;19928;-92
2022/08/28 14:19:40;;;;;;;;;;;22.30;98.80;;;;;;5025452;28;19999;-93
2022/08/28 14:22:05;;;;;;;;;;;22.20;98.70;;;;;;5052066;28;19928;-94
2022/08/28 14:24:31;;;;;;;;;;;21.90;98.90;;;;;;5053485;28;19942;-94
2022/08/28 14:26:57;;;;;;;;;;;21.50;99.40;;;;;;5022934;28;20494;-95
2022/08/28 14:29:22;;;;;;;;;;;21.60;99.80;;;;;;5038363;28;20007;-95
2022/08/28 14:31:49;;;;;;;;;;;22.00;99.50;;;;;;5056683;28;19921;-95